sensor_id;sensor_type;location;lat;lon;timestamp;pressure;altitude;pressure_sealevel;temperature;humidity
10700;BME280;5401;41.986;21.452;2023-01-19T08:56:52;97230.16;;;16.52;61.19
10700;BME280;5401;41.986;21.452;2023-01-19T08:59:20;97233.31;;;16.69;60.77
10700;BME280;5401;41.986;21.452;2023-01-19T09:01:47;97243.53;;;16.72;61.06
10700;BME280;5401;41.986;21.452;2023-01-19T09:04:15;97247.03;;;16.77;60.69
10700;BME280;5401;41.986;21.452;2023-01-19T09:06:42;97225.91;;;16.89;60.12
10700;BME280;5401;41.986;21.452;2023-01-19T09:09:10;97251.72;;;17.10;59.13
10700;BME280;5401;41.986;21.452;2023-01-19T09:11:37;97229.03;;;17.11;59.26
10700;BME280;5401;41.986;21.452;2023-01-19T09:14:06;97243.34;;;17.07;58.46
10700;BME280;5401;41.986;21.452;2023-01-19T09:16:34;97227.44;;;17.00;58.37
10700;BME280;5401;41.986;21.452;2023-01-19T09:19:02;97213.19;;;16.90;59.11
10700;BME280;5401;41.986;21.452;2023-01-19T09:21:29;97219.66;;;16.94;58.49
10700;BME280;5401;41.986;21.452;2023-01-19T09:23:56;97218.59;;;16.95;58.52
10700;BME280;5401;41.986;21.452;2023-01-19T09:26:24;97206.72;;;16.91;58.41
10700;BME280;5401;41.986;21.452;2023-01-19T09:28:52;97225.84;;;16.94;58.95
10700;BME280;5401;41.986;21.452;2023-01-19T09:31:21;97221.59;;;16.83;58.41
10700;BME280;5401;41.986;21.452;2023-01-19T09:33:48;97233.47;;;16.87;59.25
10700;BME280;5401;41.986;21.452;2023-01-19T09:36:15;97251.03;;;16.90;58.45
10700;BME280;5401;41.986;21.452;2023-01-19T09:38:43;97256.47;;;16.85;59.28
10700;BME280;5401;41.986;21.452;2023-01-19T09:41:17;97239.72;;;16.83;59.21
10700;BME280;5401;41.986;21.452;2023-01-19T09:43:49;97222.66;;;16.87;58.35
10700;BME280;5401;41.986;21.452;2023-01-19T09:46:23;97240.97;;;17.00;58.56
10700;BME280;5401;41.986;21.452;2023-01-19T09:48:54;97227.66;;;17.09;58.46
10700;BME280;5401;41.986;21.452;2023-01-19T09:51:26;97253.09;;;17.17;57.90
10700;BME280;5401;41.986;21.452;2023-01-19T09:53:59;97272.81;;;17.13;57.39
10700;BME280;5401;41.986;21.452;2023-01-19T09:56:30;97244.41;;;17.11;57.45
10700;BME280;5401;41.986;21.452;2023-01-19T09:58:58;97247.69;;;17.08;58.01
10700;BME280;5401;41.986;21.452;2023-01-19T10:01:44;97258.75;;;17.16;57.37
10700;BME280;5401;41.986;21.452;2023-01-19T10:04:31;97245.75;;;17.18;57.05
10700;BME280;5401;41.986;21.452;2023-01-19T10:07:22;97239.56;;;17.17;56.61
10700;BME280;5401;41.986;21.452;2023-01-19T10:10:09;97245.53;;;17.05;57.16
10700;BME280;5401;41.986;21.452;2023-01-19T10:12:46;97239.38;;;16.99;56.76
10700;BME280;5401;41.986;21.452;2023-01-19T10:15:27;97249.91;;;16.96;57.22
10700;BME280;5401;41.986;21.452;2023-01-19T10:18:11;97242.09;;;16.94;57.57
10700;BME280;5401;41.986;21.452;2023-01-19T10:20:42;97224.81;;;16.90;56.68
10700;BME280;5401;41.986;21.452;2023-01-19T10:23:26;97225.34;;;16.92;57.28
10700;BME280;5401;41.986;21.452;2023-01-19T10:25:55;97234.81;;;16.95;56.44
10700;BME280;5401;41.986;21.452;2023-01-19T10:28:25;97239.38;;;16.94;56.30
10700;BME280;5401;41.986;21.452;2023-01-19T10:30:54;97241.84;;;16.91;57.30
10700;BME280;5401;41.986;21.452;2023-01-19T10:33:26;97232.09;;;16.90;57.21
10700;BME280;5401;41.986;21.452;2023-01-19T10:35:53;97230.50;;;16.89;56.74
10700;BME280;5401;41.986;21.452;2023-01-19T10:38:21;97236.72;;;16.89;56.36
10700;BME280;5401;41.986;21.452;2023-01-19T10:40:54;97237.53;;;16.90;56.45
10700;BME280;5401;41.986;21.452;2023-01-19T10:43:35;97218.34;;;16.86;56.59
10700;BME280;5401;41.986;21.452;2023-01-19T10:46:05;97224.25;;;16.93;56.82
10700;BME280;5401;41.986;21.452;2023-01-19T10:48:38;97218.59;;;16.95;56.36
10700;BME280;5401;41.986;21.452;2023-01-19T10:51:09;97215.56;;;16.96;55.81
10700;BME280;5401;41.986;21.452;2023-01-19T10:53:37;97226.38;;;16.96;56.32
10700;BME280;5401;41.986;21.452;2023-01-19T10:56:12;97225.84;;;16.94;56.22
10700;BME280;5401;41.986;21.452;2023-01-19T10:58:42;97231.25;;;16.94;56.67
10700;BME280;5401;41.986;21.452;2023-01-19T11:01:14;97219.66;;;16.94;56.30
10700;BME280;5401;41.986;21.452;2023-01-19T11:03:43;97227.22;;;16.92;55.57
10700;BME280;5401;41.986;21.452;2023-01-19T11:06:24;97225.91;;;16.89;55.60
10700;BME280;5401;41.986;21.452;2023-01-19T11:08:53;97231.03;;;16.91;55.43
10700;BME280;5401;41.986;21.452;2023-01-19T11:11:44;97223.19;;;16.89;55.52
10700;BME280;5401;41.986;21.452;2023-01-19T11:14:16;97221.03;;;16.86;56.21
10700;BME280;5401;41.986;21.452;2023-01-19T11:16:47;97245.91;;;16.88;55.51
10700;BME280;5401;41.986;21.452;2023-01-19T11:19:24;97237.81;;;16.83;55.73
10700;BME280;5401;41.986;21.452;2023-01-19T11:21:52;97245.13;;;16.83;56.10
10700;BME280;5401;41.986;21.452;2023-01-19T11:24:36;97244.56;;;16.86;55.91
10700;BME280;5401;41.986;21.452;2023-01-19T11:27:03;97244.81;;;16.89;55.96
10700;BME280;5401;41.986;21.452;2023-01-19T11:29:31;97252.66;;;16.91;56.01
10700;BME280;5401;41.986;21.452;2023-01-19T11:32:09;97254.28;;;16.92;56.00
10700;BME280;5401;41.986;21.452;2023-01-19T11:34:38;97257.22;;;16.95;55.31
10700;BME280;5401;41.986;21.452;2023-01-19T11:37:25;97256.66;;;16.98;55.56
10700;BME280;5401;41.986;21.452;2023-01-19T11:39:55;97259.63;;;17.02;55.83
10700;BME280;5401;41.986;21.452;2023-01-19T11:42:24;97275.00;;;17.06;55.19
10700;BME280;5401;41.986;21.452;2023-01-19T11:44:58;97272.31;;;17.06;55.49
10700;BME280;5401;41.986;21.452;2023-01-19T11:47:31;97281.47;;;17.10;55.73
10700;BME280;5401;41.986;21.452;2023-01-19T11:50:05;97276.06;;;17.10;54.93
10700;BME280;5401;41.986;21.452;2023-01-19T11:52:40;97270.94;;;17.09;55.25
10700;BME280;5401;41.986;21.452;2023-01-19T11:55:18;97255.75;;;17.13;54.88
10700;BME280;5401;41.986;21.452;2023-01-19T11:57:50;97268.22;;;17.18;55.19
10700;BME280;5401;41.986;21.452;2023-01-19T12:00:24;97272.81;;;17.18;54.84
10700;BME280;5401;41.986;21.452;2023-01-19T12:02:57;97253.09;;;17.17;55.15
10700;BME280;5401;41.986;21.452;2023-01-19T12:05:32;97251.44;;;17.16;54.88
10700;BME280;5401;41.986;21.452;2023-01-19T12:08:04;97245.53;;;17.10;55.37
10700;BME280;5401;41.986;21.452;2023-01-19T12:10:35;97243.63;;;17.10;55.11
10700;BME280;5401;41.986;21.452;2023-01-19T12:13:16;97250.66;;;17.11;55.66
10700;BME280;5401;41.986;21.452;2023-01-19T12:15:47;97255.53;;;17.09;54.87
10700;BME280;5401;41.986;21.452;2023-01-19T12:18:20;97247.16;;;17.06;54.71
10700;BME280;5401;41.986;21.452;2023-01-19T12:20:51;97243.13;;;17.03;54.83
10700;BME280;5401;41.986;21.452;2023-01-19T12:23:27;97263.41;;;17.06;54.71
10700;BME280;5401;41.986;21.452;2023-01-19T12:26:18;97268.75;;;17.11;55.57
10700;BME280;5401;41.986;21.452;2023-01-19T12:28:50;97272.28;;;17.11;54.83
10700;BME280;5401;41.986;21.452;2023-01-19T12:31:19;97265.53;;;17.09;55.46
10700;BME280;5401;41.986;21.452;2023-01-19T12:33:48;97277.19;;;17.04;54.88
10700;BME280;5401;41.986;21.452;2023-01-19T12:36:35;97264.53;;;16.95;55.08
10700;BME280;5401;41.986;21.452;2023-01-19T12:39:08;97275.63;;;16.88;55.68
10700;BME280;5401;41.986;21.452;2023-01-19T12:41:38;97283.25;;;16.81;55.88
10700;BME280;5401;41.986;21.452;2023-01-19T12:44:28;97268.19;;;16.71;54.88
10700;BME280;5401;41.986;21.452;2023-01-19T12:46:59;97268.75;;;16.63;55.16
10700;BME280;5401;41.986;21.452;2023-01-19T12:49:33;97286.84;;;16.57;55.92
10700;BME280;5401;41.986;21.452;2023-01-19T12:57:46;97300.16;;;16.39;55.34
10700;BME280;5401;41.986;21.452;2023-01-19T13:00:31;97292.88;;;16.35;56.20
10700;BME280;5401;41.986;21.452;2023-01-19T13:03:00;97282.09;;;16.25;56.33
10700;BME280;5401;41.986;21.452;2023-01-19T13:05:49;97282.91;;;16.25;55.63
10700;BME280;5401;41.986;21.452;2023-01-19T13:08:20;97282.09;;;16.25;55.90
10700;BME280;5401;41.986;21.452;2023-01-19T13:17:18;97299.38;;;16.19;56.23
10700;BME280;5401;41.986;21.452;2023-01-19T13:19:54;97304.47;;;16.15;55.68
10700;BME280;5401;41.986;21.452;2023-01-19T13:25:32;97294.78;;;16.14;55.79
10700;BME280;5401;41.986;21.452;2023-01-19T13:28:03;97295.03;;;16.13;56.30
10700;BME280;5401;41.986;21.452;2023-01-19T13:30:34;97298.03;;;16.16;55.85
10700;BME280;5401;41.986;21.452;2023-01-19T13:33:13;97282.63;;;16.12;56.39
10700;BME280;5401;41.986;21.452;2023-01-19T13:35:49;97281.28;;;16.14;56.43
10700;BME280;5401;41.986;21.452;2023-01-19T13:38:18;97266.69;;;16.15;56.31
10700;BME280;5401;41.986;21.452;2023-01-19T13:40:47;97277.25;;;16.17;56.28
10700;BME280;5401;41.986;21.452;2023-01-19T13:43:18;97276.19;;;16.18;56.13
10700;BME280;5401;41.986;21.452;2023-01-19T13:45:48;97268.06;;;16.18;56.71
10700;BME280;5401;41.986;21.452;2023-01-19T13:48:20;97263.47;;;16.18;55.98
10700;BME280;5401;41.986;21.452;2023-01-19T13:51:02;97256.19;;;16.19;56.24
10700;BME280;5401;41.986;21.452;2023-01-19T13:53:30;97258.31;;;16.22;56.12
10700;BME280;5401;41.986;21.452;2023-01-19T13:56:16;97264.56;;;16.22;55.80
10700;BME280;5401;41.986;21.452;2023-01-19T13:59:04;97265.63;;;16.21;56.01
10700;BME280;5401;41.986;21.452;2023-01-19T14:01:36;97275.09;;;16.19;56.09
10700;BME280;5401;41.986;21.452;2023-01-19T14:04:04;97262.94;;;16.16;56.40
10700;BME280;5401;41.986;21.452;2023-01-19T14:06:37;97255.06;;;16.15;56.21
10700;BME280;5401;41.986;21.452;2023-01-19T14:09:07;97254.81;;;16.11;56.41
10700;BME280;5401;41.986;21.452;2023-01-19T14:11:37;97248.34;;;16.12;56.10
10700;BME280;5401;41.986;21.452;2023-01-19T14:14:19;97251.84;;;16.13;56.35
10700;BME280;5401;41.986;21.452;2023-01-19T14:16:47;97263.72;;;16.12;56.50
10700;BME280;5401;41.986;21.452;2023-01-19T14:19:14;97269.66;;;16.09;56.58
10700;BME280;5401;41.986;21.452;2023-01-19T14:21:42;97285.06;;;16.04;55.97
10700;BME280;5401;41.986;21.452;2023-01-19T14:24:16;97277.53;;;15.96;56.41
10700;BME280;5401;41.986;21.452;2023-01-19T14:26:48;97290.75;;;15.87;56.23
10700;BME280;5401;41.986;21.452;2023-01-19T14:29:21;97287.78;;;15.84;56.55
10700;BME280;5401;41.986;21.452;2023-01-19T14:31:51;97284.56;;;15.82;56.60
10700;BME280;5401;41.986;21.452;2023-01-19T14:34:32;97283.19;;;15.79;56.45
10700;BME280;5401;41.986;21.452;2023-01-19T14:37:03;97287.53;;;15.75;56.63
10700;BME280;5401;41.986;21.452;2023-01-19T14:39:33;97294.81;;;15.70;56.94
10700;BME280;5401;41.986;21.452;2023-01-19T14:42:03;97305.03;;;15.73;57.01
10700;BME280;5401;41.986;21.452;2023-01-19T14:44:34;97313.13;;;15.73;56.92
10700;BME280;5401;41.986;21.452;2023-01-19T14:47:03;97312.06;;;15.64;56.90
10700;BME280;5401;41.986;21.452;2023-01-19T14:49:33;97306.66;;;15.54;57.27
10700;BME280;5401;41.986;21.452;2023-01-19T14:52:03;97307.22;;;15.51;57.40
10700;BME280;5401;41.986;21.452;2023-01-19T14:54:35;97296.41;;;15.51;57.52
10700;BME280;5401;41.986;21.452;2023-01-19T14:57:10;97295.34;;;15.47;57.76
10700;BME280;5401;41.986;21.452;2023-01-19T14:59:39;97288.84;;;15.38;57.80
10700;BME280;5401;41.986;21.452;2023-01-19T15:02:07;97298.00;;;15.33;57.66
10700;BME280;5401;41.986;21.452;2023-01-19T15:04:35;97306.09;;;15.33;57.98
10700;BME280;5401;41.986;21.452;2023-01-19T15:07:02;97312.56;;;15.32;58.03
10700;BME280;5401;41.986;21.452;2023-01-19T15:09:30;97306.38;;;15.31;58.17
10700;BME280;5401;41.986;21.452;2023-01-19T15:11:57;97310.97;;;15.35;58.29
10700;BME280;5401;41.986;21.452;2023-01-19T15:14:26;97322.56;;;15.31;58.22
10700;BME280;5401;41.986;21.452;2023-01-19T15:16:54;97319.03;;;15.26;58.53
10700;BME280;5401;41.986;21.452;2023-01-19T15:19:21;97318.44;;;15.19;58.84
10700;BME280;5401;41.986;21.452;2023-01-19T15:21:49;97329.78;;;15.16;58.53
10700;BME280;5401;41.986;21.452;2023-01-19T15:24:16;97316.50;;;15.04;58.58
10700;BME280;5401;41.986;21.452;2023-01-19T15:26:43;97333.22;;;15.06;59.23
10700;BME280;5401;41.986;21.452;2023-01-19T15:29:22;97325.09;;;14.92;59.37
10700;BME280;5401;41.986;21.452;2023-01-19T15:31:51;97331.81;;;14.94;59.34
10700;BME280;5401;41.986;21.452;2023-01-19T15:34:19;97326.94;;;14.86;58.91
10700;BME280;5401;41.986;21.452;2023-01-19T15:36:46;97342.31;;;14.86;59.35
10700;BME280;5401;41.986;21.452;2023-01-19T15:39:14;97352.53;;;14.84;59.76
10700;BME280;5401;41.986;21.452;2023-01-19T15:41:41;97359.53;;;14.80;60.13
10700;BME280;5401;41.986;21.452;2023-01-19T15:44:09;97355.72;;;14.76;59.62
10700;BME280;5401;41.986;21.452;2023-01-19T15:46:37;97348.44;;;14.71;59.73
10700;BME280;5401;41.986;21.452;2023-01-19T15:49:06;97328.75;;;14.66;59.40
10700;BME280;5401;41.986;21.452;2023-01-19T15:51:33;97328.97;;;14.60;59.97
10700;BME280;5401;41.986;21.452;2023-01-19T15:54:00;97336.25;;;14.59;59.48
10700;BME280;5401;41.986;21.452;2023-01-19T15:56:30;97339.22;;;14.58;58.97
10700;BME280;5401;41.986;21.452;2023-01-19T15:58:58;97351.56;;;14.54;58.90
10700;BME280;5401;41.986;21.452;2023-01-19T16:01:27;97363.94;;;14.50;58.98
10700;BME280;5401;41.986;21.452;2023-01-19T16:03:58;97399.47;;;14.47;58.59
10700;BME280;5401;41.986;21.452;2023-01-19T16:06:28;97402.44;;;14.45;59.58
10700;BME280;5401;41.986;21.452;2023-01-19T16:08:56;97401.63;;;14.45;59.41
10700;BME280;5401;41.986;21.452;2023-01-19T16:11:26;97409.09;;;14.38;59.18
10700;BME280;5401;41.986;21.452;2023-01-19T16:13:54;97415.59;;;14.42;59.57
10700;BME280;5401;41.986;21.452;2023-01-19T16:16:25;97411.78;;;14.38;59.44
10700;BME280;5401;41.986;21.452;2023-01-19T16:18:52;97410.44;;;14.35;59.42
10700;BME280;5401;41.986;21.452;2023-01-19T16:21:20;97405.31;;;14.34;59.40
10700;BME280;5401;41.986;21.452;2023-01-19T16:23:50;97405.84;;;14.31;60.47
10700;BME280;5401;41.986;21.452;2023-01-19T16:26:26;97405.03;;;14.30;60.49
10700;BME280;5401;41.986;21.452;2023-01-19T16:28:55;97404.22;;;14.30;60.02
10700;BME280;5401;41.986;21.452;2023-01-19T16:31:23;97412.53;;;14.28;60.52
10700;BME280;5401;41.986;21.452;2023-01-19T16:33:51;97406.84;;;14.25;60.98
10700;BME280;5401;41.986;21.452;2023-01-19T16:36:21;97391.44;;;14.16;60.26
10700;BME280;5401;41.986;21.452;2023-01-19T16:38:50;97404.69;;;14.22;60.14
10700;BME280;5401;41.986;21.452;2023-01-19T16:41:18;97408.69;;;14.20;61.34
10700;BME280;5401;41.986;21.452;2023-01-19T16:43:49;97401.69;;;14.19;61.52
10700;BME280;5401;41.986;21.452;2023-01-19T16:46:20;97381.75;;;14.15;61.36
10700;BME280;5401;41.986;21.452;2023-01-19T16:48:48;97400.63;;;14.20;61.14
10700;BME280;5401;41.986;21.452;2023-01-19T16:51:16;97397.66;;;14.16;61.69
10700;BME280;5401;41.986;21.452;2023-01-19T16:53:43;97427.03;;;14.23;61.36
10700;BME280;5401;41.986;21.452;2023-01-19T16:56:13;97412.22;;;14.20;61.46
10700;BME280;5401;41.986;21.452;2023-01-19T16:58:41;97410.56;;;14.14;61.56
10700;BME280;5401;41.986;21.452;2023-01-19T17:01:10;97414.59;;;14.17;61.64
10700;BME280;5401;41.986;21.452;2023-01-19T17:03:38;97420.50;;;14.14;62.13
10700;BME280;5401;41.986;21.452;2023-01-19T17:06:06;97416.75;;;14.15;61.58
10700;BME280;5401;41.986;21.452;2023-01-19T17:08:34;97403.50;;;14.08;62.30
10700;BME280;5401;41.986;21.452;2023-01-19T17:11:07;97397.00;;;14.04;62.48
10700;BME280;5401;41.986;21.452;2023-01-19T17:13:37;97407.22;;;14.02;62.98
10700;BME280;5401;41.986;21.452;2023-01-19T17:16:05;97415.47;;;13.96;62.21
10700;BME280;5401;41.986;21.452;2023-01-19T17:18:34;97414.09;;;13.93;63.00
10700;BME280;5401;41.986;21.452;2023-01-19T17:21:04;97402.22;;;13.89;62.05
10700;BME280;5401;41.986;21.452;2023-01-19T17:23:32;97394.91;;;13.85;62.44
10700;BME280;5401;41.986;21.452;2023-01-19T17:26:02;97398.59;;;13.74;62.62
10700;BME280;5401;41.986;21.452;2023-01-19T17:28:29;97411.47;;;13.72;63.39
10700;BME280;5401;41.986;21.452;2023-01-19T17:31:02;97404.13;;;13.63;62.28
10700;BME280;5401;41.986;21.452;2023-01-19T17:33:31;97410.06;;;13.65;63.42
10700;BME280;5401;41.986;21.452;2023-01-19T17:36:01;97420.25;;;13.63;63.35
10700;BME280;5401;41.986;21.452;2023-01-19T17:38:28;97415.63;;;13.58;63.35
10700;BME280;5401;41.986;21.452;2023-01-19T17:40:56;97420.16;;;13.53;62.75
10700;BME280;5401;41.986;21.452;2023-01-19T17:43:26;97412.59;;;13.50;62.60
10700;BME280;5401;41.986;21.452;2023-01-19T17:45:54;97408.22;;;13.44;63.27
10700;BME280;5401;41.986;21.452;2023-01-19T17:48:23;97415.53;;;13.49;63.70
10700;BME280;5401;41.986;21.452;2023-01-19T17:50:50;97392.41;;;13.48;62.85
10700;BME280;5401;41.986;21.452;2023-01-19T17:53:19;97400.97;;;13.45;63.07
10700;BME280;5401;41.986;21.452;2023-01-19T17:55:46;97400.41;;;13.43;64.33
10700;BME280;5401;41.986;21.452;2023-01-19T17:58:13;97402.81;;;13.39;63.96
10700;BME280;5401;41.986;21.452;2023-01-19T18:00:41;97391.75;;;13.36;64.22
10700;BME280;5401;41.986;21.452;2023-01-19T18:03:08;97389.63;;;13.38;63.78
10700;BME280;5401;41.986;21.452;2023-01-19T18:05:37;97394.47;;;13.41;63.70
10700;BME280;5401;41.986;21.452;2023-01-19T18:08:05;97383.47;;;13.42;64.48
10700;BME280;5401;41.986;21.452;2023-01-19T18:10:32;97373.84;;;13.46;63.20
10700;BME280;5401;41.986;21.452;2023-01-19T18:12:59;97357.94;;;13.45;63.65
10700;BME280;5401;41.986;21.452;2023-01-19T18:15:27;97362.53;;;13.44;63.72
10700;BME280;5401;41.986;21.452;2023-01-19T18:17:55;97352.56;;;13.45;64.01
10700;BME280;5401;41.986;21.452;2023-01-19T18:20:22;97355.53;;;13.43;64.34
10700;BME280;5401;41.986;21.452;2023-01-19T18:22:51;97338.00;;;13.41;64.23
10700;BME280;5401;41.986;21.452;2023-01-19T18:25:19;97341.22;;;13.38;64.07
10700;BME280;5401;41.986;21.452;2023-01-19T18:27:46;97338.47;;;13.33;64.77
10700;BME280;5401;41.986;21.452;2023-01-19T18:30:15;97346.25;;;13.29;64.32
10700;BME280;5401;41.986;21.452;2023-01-19T18:32:42;97358.56;;;13.25;64.10
10700;BME280;5401;41.986;21.452;2023-01-19T18:35:11;97354.75;;;13.21;64.45
10700;BME280;5401;41.986;21.452;2023-01-19T18:37:39;97353.41;;;13.19;64.51
10700;BME280;5401;41.986;21.452;2023-01-19T18:40:09;97347.72;;;13.16;63.75
10700;BME280;5401;41.986;21.452;2023-01-19T18:42:37;97359.03;;;13.18;64.10
10700;BME280;5401;41.986;21.452;2023-01-19T18:45:05;97359.03;;;13.18;65.14
10700;BME280;5401;41.986;21.452;2023-01-19T18:47:33;97359.03;;;13.18;64.64
10700;BME280;5401;41.986;21.452;2023-01-19T18:50:00;97357.13;;;13.18;65.00
10700;BME280;5401;41.986;21.452;2023-01-19T18:52:28;97352.31;;;13.20;63.96
10700;BME280;5401;41.986;21.452;2023-01-19T18:54:57;97364.16;;;13.19;64.21
10700;BME280;5401;41.986;21.452;2023-01-19T18:57:26;97363.88;;;13.20;64.00
10700;BME280;5401;41.986;21.452;2023-01-19T18:59:53;97359.34;;;13.21;64.39
10700;BME280;5401;41.986;21.452;2023-01-19T19:02:21;97362.81;;;13.21;64.41
10700;BME280;5401;41.986;21.452;2023-01-19T19:04:49;97370.09;;;13.21;64.35
10700;BME280;5401;41.986;21.452;2023-01-19T19:07:16;97351.00;;;13.22;63.98
10700;BME280;5401;41.986;21.452;2023-01-19T19:09:44;97345.06;;;13.20;65.38
10700;BME280;5401;41.986;21.452;2023-01-19T19:12:11;97352.31;;;13.20;65.26
10700;BME280;5401;41.986;21.452;2023-01-19T19:14:40;97363.88;;;13.20;65.45
10700;BME280;5401;41.986;21.452;2023-01-19T19:17:07;97371.94;;;13.20;65.17
10700;BME280;5401;41.986;21.452;2023-01-19T19:19:35;97365.28;;;13.23;65.23
10700;BME280;5401;41.986;21.452;2023-01-19T19:22:02;97347.50;;;13.22;65.53
10700;BME280;5401;41.986;21.452;2023-01-19T19:24:30;97328.69;;;13.22;65.00
10700;BME280;5401;41.986;21.452;2023-01-19T19:26:57;97328.69;;;13.22;65.71
10700;BME280;5401;41.986;21.452;2023-01-19T19:29:25;97324.41;;;13.21;64.99
10700;BME280;5401;41.986;21.452;2023-01-19T19:31:54;97324.13;;;13.22;64.94
10700;BME280;5401;41.986;21.452;2023-01-19T19:34:22;97328.38;;;13.18;65.37
10700;BME280;5401;41.986;21.452;2023-01-19T19:36:51;97339.69;;;13.20;65.77
10700;BME280;5401;41.986;21.452;2023-01-19T19:39:18;97332.19;;;13.22;64.60
10700;BME280;5401;41.986;21.452;2023-01-19T19:41:46;97335.72;;;13.23;65.01
10700;BME280;5401;41.986;21.452;2023-01-19T19:44:14;97325.44;;;13.20;65.66
10700;BME280;5401;41.986;21.452;2023-01-19T19:46:41;97331.03;;;13.14;65.90
10700;BME280;5401;41.986;21.452;2023-01-19T19:49:10;97327.09;;;13.00;65.14
10700;BME280;5401;41.986;21.452;2023-01-19T19:51:37;97335.81;;;12.85;65.85
10700;BME280;5401;41.986;21.452;2023-01-19T19:54:05;97333.53;;;12.78;65.80
10700;BME280;5401;41.986;21.452;2023-01-19T19:56:32;97314.94;;;12.71;65.36
10700;BME280;5401;41.986;21.452;2023-01-19T19:59:11;97313.19;;;12.60;66.46
10700;BME280;5401;41.986;21.452;2023-01-19T20:01:38;97310.19;;;12.57;66.13
10700;BME280;5401;41.986;21.452;2023-01-19T20:04:07;97314.19;;;12.54;66.00
10700;BME280;5401;41.986;21.452;2023-01-19T20:06:38;97319.59;;;12.59;66.25
10700;BME280;5401;41.986;21.452;2023-01-19T20:09:10;97318.84;;;12.64;65.90
10700;BME280;5401;41.986;21.452;2023-01-19T20:11:40;97313.28;;;12.70;66.24
10700;BME280;5401;41.986;21.452;2023-01-19T20:14:09;97299.84;;;12.70;66.36
10700;BME280;5401;41.986;21.452;2023-01-19T20:16:37;97302.38;;;12.77;66.05
10700;BME280;5401;41.986;21.452;2023-01-19T20:19:05;97301.25;;;12.73;67.03
10700;BME280;5401;41.986;21.452;2023-01-19T20:21:33;97288.31;;;12.70;66.44
10700;BME280;5401;41.986;21.452;2023-01-19T20:24:05;97286.34;;;12.60;66.87
10700;BME280;5401;41.986;21.452;2023-01-19T20:26:35;97286.59;;;12.59;66.74
10700;BME280;5401;41.986;21.452;2023-01-19T20:29:03;97288.47;;;12.58;66.57
10700;BME280;5401;41.986;21.452;2023-01-19T20:31:34;97279.31;;;12.59;67.12
10700;BME280;5401;41.986;21.452;2023-01-19T20:34:03;97289.63;;;12.67;66.48
10700;BME280;5401;41.986;21.452;2023-01-19T20:36:31;97284.81;;;12.69;67.63
10700;BME280;5401;41.986;21.452;2023-01-19T20:38:59;97280.81;;;12.72;67.43
10700;BME280;5401;41.986;21.452;2023-01-19T20:41:35;97275.69;;;12.70;66.53
10700;BME280;5401;41.986;21.452;2023-01-19T20:44:08;97278.38;;;12.70;66.37
10700;BME280;5401;41.986;21.452;2023-01-19T20:46:37;97276.41;;;12.61;66.82
10700;BME280;5401;41.986;21.452;2023-01-19T20:49:05;97279.56;;;12.58;67.59
10700;BME280;5401;41.986;21.452;2023-01-19T20:51:32;97288.47;;;12.58;66.82
10700;BME280;5401;41.986;21.452;2023-01-19T20:54:02;97289.50;;;12.57;67.93
10700;BME280;5401;41.986;21.452;2023-01-19T20:56:30;97288.47;;;12.58;67.91
10700;BME280;5401;41.986;21.452;2023-01-19T20:58:59;97287.94;;;12.61;67.11
10700;BME280;5401;41.986;21.452;2023-01-19T21:01:27;97293.56;;;12.60;68.14
10700;BME280;5401;41.986;21.452;2023-01-19T21:03:54;97292.75;;;12.59;67.76
10700;BME280;5401;41.986;21.452;2023-01-19T21:06:22;97285.91;;;12.47;67.63
10700;BME280;5401;41.986;21.452;2023-01-19T21:08:49;97303.88;;;12.47;67.98
10700;BME280;5401;41.986;21.452;2023-01-19T21:11:18;97307.41;;;12.52;68.62
10700;BME280;5401;41.986;21.452;2023-01-19T21:13:47;97307.13;;;12.48;68.50
10700;BME280;5401;41.986;21.452;2023-01-19T21:16:17;97314.06;;;12.45;68.05
10700;BME280;5401;41.986;21.452;2023-01-19T21:18:45;97309.72;;;12.44;68.17
10700;BME280;5401;41.986;21.452;2023-01-19T21:21:13;97303.88;;;12.47;68.19
10700;BME280;5401;41.986;21.452;2023-01-19T21:23:41;97305.16;;;12.44;68.87
10700;BME280;5401;41.986;21.452;2023-01-19T21:26:09;97308.13;;;12.43;68.97
10700;BME280;5401;41.986;21.452;2023-01-19T21:28:38;97306.56;;;12.47;68.70
10700;BME280;5401;41.986;21.452;2023-01-19T21:31:06;97300.69;;;12.49;69.26
10700;BME280;5401;41.986;21.452;2023-01-19T21:33:36;97292.31;;;12.46;69.85
10700;BME280;5401;41.986;21.452;2023-01-19T21:36:04;97287.50;;;12.48;69.08
10700;BME280;5401;41.986;21.452;2023-01-19T21:38:34;97268.97;;;12.47;69.83
10700;BME280;5401;41.986;21.452;2023-01-19T21:41:05;97252.56;;;12.43;70.19
10700;BME280;5401;41.986;21.452;2023-01-19T21:43:35;97254.63;;;12.36;70.35
10700;BME280;5401;41.986;21.452;2023-01-19T21:46:11;97250.25;;;12.30;69.60
10700;BME280;5401;41.986;21.452;2023-01-19T21:48:40;97235.53;;;12.33;70.57
10700;BME280;5401;41.986;21.452;2023-01-19T21:51:08;97243.34;;;12.34;70.35
10700;BME280;5401;41.986;21.452;2023-01-19T21:53:36;97230.22;;;12.38;70.91
10700;BME280;5401;41.986;21.452;2023-01-19T21:56:05;97226.72;;;12.37;70.79
10700;BME280;5401;41.986;21.452;2023-01-19T21:58:33;97202.31;;;12.39;70.35
10700;BME280;5401;41.986;21.452;2023-01-19T22:01:01;97180.28;;;12.37;71.20
10700;BME280;5401;41.986;21.452;2023-01-19T22:03:29;97185.09;;;12.35;70.71
10700;BME280;5401;41.986;21.452;2023-01-19T22:06:02;97201.19;;;12.35;71.75
10700;BME280;5401;41.986;21.452;2023-01-19T22:08:29;97201.19;;;12.35;71.14
10700;BME280;5401;41.986;21.452;2023-01-19T22:11:01;97196.31;;;12.32;71.16
10700;BME280;5401;41.986;21.452;2023-01-19T22:13:28;97198.38;;;12.25;72.00
10700;BME280;5401;41.986;21.452;2023-01-19T22:15:59;97207.00;;;12.27;71.96
10700;BME280;5401;41.986;21.452;2023-01-19T22:18:27;97213.94;;;12.23;72.66
10700;BME280;5401;41.986;21.452;2023-01-19T22:20:55;97215.16;;;12.15;72.81
10700;BME280;5401;41.986;21.452;2023-01-19T22:23:24;97234.78;;;12.16;72.12
10700;BME280;5401;41.986;21.452;2023-01-19T22:25:51;97233.47;;;12.18;72.29
10700;BME280;5401;41.986;21.452;2023-01-19T22:28:18;97246.63;;;12.20;73.20